sensor_id;sensor_type;location;lat;lon;timestamp;pressure;altitude;pressure_sealevel;temperature;humidity
64352;BME280;50680;52.626;-8.668;2023-02-14T11:13:36;102085.94;;;13.60;100.00
64352;BME280;50680;52.626;-8.668;2023-02-14T11:16:08;102065.25;;;13.69;100.00
64352;BME280;50680;52.626;-8.668;2023-02-14T11:18:36;102078.47;;;14.03;100.00
64352;BME280;50680;52.626;-8.668;2023-02-14T11:21:11;102079.72;;;14.13;100.00
64352;BME280;50680;52.626;-8.668;2023-02-14T11:23:43;102082.19;;;14.16;100.00
64352;BME280;50680;52.626;-8.668;2023-02-14T11:26:22;102081.16;;;14.19;100.00
64352;BME280;50680;52.626;-8.668;2023-02-14T11:28:56;102075.81;;;14.20;100.00
64352;BME280;50680;52.626;-8.668;2023-02-14T11:31:37;102072.47;;;14.17;100.00
64352;BME280;50680;52.626;-8.668;2023-02-14T11:34:22;102066.59;;;14.11;100.00
64352;BME280;50680;52.626;-8.668;2023-02-14T11:36:50;102075.03;;;14.18;100.00
64352;BME280;50680;52.626;-8.668;2023-02-14T11:39:29;102082.06;;;14.02;100.00
64352;BME280;50680;52.626;-8.668;2023-02-14T11:42:01;102082.91;;;14.02;100.00
64352;BME280;50680;52.626;-8.668;2023-02-14T11:44:31;102077.50;;;14.05;100.00
64352;BME280;50680;52.626;-8.668;2023-02-14T11:47:37;102075.31;;;13.96;100.00
64352;BME280;50680;52.626;-8.668;2023-02-14T11:50:27;102068.09;;;14.00;100.00
64352;BME280;50680;52.626;-8.668;2023-02-14T11:52:55;102068.28;;;13.97;100.00
64352;BME280;50680;52.626;-8.668;2023-02-14T11:55:28;102060.28;;;13.98;100.00
64352;BME280;50680;52.626;-8.668;2023-02-14T11:57:56;102061.25;;;14.13;100.00
64352;BME280;50680;52.626;-8.668;2023-02-14T12:00:23;102052.53;;;14.28;100.00
64352;BME280;50680;52.626;-8.668;2023-02-14T12:02:52;102036.91;;;14.41;100.00
64352;BME280;50680;52.626;-8.668;2023-02-14T12:05:30;102039.66;;;14.72;100.00
64352;BME280;50680;52.626;-8.668;2023-02-14T12:07:59;102034.78;;;14.96;100.00
64352;BME280;50680;52.626;-8.668;2023-02-14T12:10:29;102033.47;;;15.19;100.00
64352;BME280;50680;52.626;-8.668;2023-02-14T12:13:00;102029.16;;;15.32;100.00
64352;BME280;50680;52.626;-8.668;2023-02-14T12:23:58;102020.09;;;15.36;100.00
64352;BME280;50680;52.626;-8.668;2023-02-14T12:26:35;102021.66;;;15.40;100.00
64352;BME280;50680;52.626;-8.668;2023-02-14T12:29:08;102027.50;;;15.46;100.00
64352;BME280;50680;52.626;-8.668;2023-02-14T12:31:40;102019.50;;;15.47;100.00
64352;BME280;50680;52.626;-8.668;2023-02-14T12:34:11;102016.72;;;15.34;100.00
64352;BME280;50680;52.626;-8.668;2023-02-14T12:37:06;102030.59;;;15.38;100.00
64352;BME280;50680;52.626;-8.668;2023-02-14T12:45:25;102010.09;;;15.27;100.00
64352;BME280;50680;52.626;-8.668;2023-02-14T13:20:47;101975.28;;;15.94;100.00
64352;BME280;50680;52.626;-8.668;2023-02-14T13:26:22;101969.59;;;16.00;100.00
64352;BME280;50680;52.626;-8.668;2023-02-14T13:29:18;101962.06;;;15.94;100.00
64352;BME280;50680;52.626;-8.668;2023-02-14T13:31:46;101965.81;;;15.90;100.00
64352;BME280;50680;52.626;-8.668;2023-02-14T13:34:33;101964.69;;;15.79;100.00
64352;BME280;50680;52.626;-8.668;2023-02-14T13:37:06;101967.31;;;15.65;100.00
64352;BME280;50680;52.626;-8.668;2023-02-14T13:42:05;101966.59;;;15.77;100.00
64352;BME280;50680;52.626;-8.668;2023-02-14T13:44:48;101962.25;;;15.76;100.00
64352;BME280;50680;52.626;-8.668;2023-02-14T13:47:22;101955.63;;;15.84;100.00
64352;BME280;50680;52.626;-8.668;2023-02-14T13:49:56;101952.31;;;15.94;100.00
64352;BME280;50680;52.626;-8.668;2023-02-14T13:52:46;101961.47;;;16.03;100.00
64352;BME280;50680;52.626;-8.668;2023-02-14T13:55:37;101962.97;;;16.07;100.00
64352;BME280;50680;52.626;-8.668;2023-02-14T13:58:18;101958.25;;;15.98;100.00
64352;BME280;50680;52.626;-8.668;2023-02-14T14:00:48;101951.00;;;15.87;100.00
64352;BME280;50680;52.626;-8.668;2023-02-14T14:06:07;101944.91;;;15.71;100.00
64352;BME280;50680;52.626;-8.668;2023-02-14T14:08:39;101925.56;;;15.56;100.00
64352;BME280;50680;52.626;-8.668;2023-02-14T14:11:10;101926.59;;;15.53;100.00
64352;BME280;50680;52.626;-8.668;2023-02-14T14:19:06;101938.47;;;15.32;100.00
64352;BME280;50680;52.626;-8.668;2023-02-14T14:21:37;101930.72;;;15.29;100.00
64352;BME280;50680;52.626;-8.668;2023-02-14T14:24:24;101934.69;;;15.21;100.00
64352;BME280;50680;52.626;-8.668;2023-02-14T14:29:33;101918.34;;;15.15;100.00
64352;BME280;50680;52.626;-8.668;2023-02-14T14:32:33;101912.47;;;15.10;100.00
64352;BME280;50680;52.626;-8.668;2023-02-14T14:35:01;101919.81;;;15.04;100.00
64352;BME280;50680;52.626;-8.668;2023-02-14T14:37:44;101911.19;;;14.87;100.00
64352;BME280;50680;52.626;-8.668;2023-02-14T14:40:34;101893.16;;;14.79;100.00
64352;BME280;50680;52.626;-8.668;2023-02-14T14:43:11;101901.34;;;14.74;100.00
64352;BME280;50680;52.626;-8.668;2023-02-14T14:45:39;101896.41;;;14.68;100.00
64352;BME280;50680;52.626;-8.668;2023-02-14T14:48:12;101897.44;;;14.65;100.00
64352;BME280;50680;52.626;-8.668;2023-02-14T14:50:44;101897.25;;;14.69;100.00
64352;BME280;50680;52.626;-8.668;2023-02-14T14:53:24;101880.75;;;14.65;100.00
64352;BME280;50680;52.626;-8.668;2023-02-14T14:55:52;101879.81;;;14.66;100.00
64352;BME280;50680;52.626;-8.668;2023-02-14T14:58:36;101885.59;;;14.73;100.00
64352;BME280;50680;52.626;-8.668;2023-02-14T15:01:05;101882.75;;;14.76;100.00
64352;BME280;50680;52.626;-8.668;2023-02-14T15:03:32;101896.84;;;14.76;100.00
64352;BME280;50680;52.626;-8.668;2023-02-14T15:06:14;101881.41;;;14.69;100.00
64352;BME280;50680;52.626;-8.668;2023-02-14T15:08:43;101881.78;;;14.62;100.00
64352;BME280;50680;52.626;-8.668;2023-02-14T15:11:19;101887.38;;;14.56;100.00
64352;BME280;50680;52.626;-8.668;2023-02-14T15:14:18;101882.97;;;14.41;100.00
64352;BME280;50680;52.626;-8.668;2023-02-14T15:16:50;101880.44;;;14.23;100.00
64352;BME280;50680;52.626;-8.668;2023-02-14T15:19:31;101884.19;;;14.19;100.00
64352;BME280;50680;52.626;-8.668;2023-02-14T15:22:05;101889.28;;;14.06;100.00
64352;BME280;50680;52.626;-8.668;2023-02-14T15:24:36;101879.94;;;14.01;100.00
64352;BME280;50680;52.626;-8.668;2023-02-14T15:27:03;101882.41;;;14.04;100.00
64352;BME280;50680;52.626;-8.668;2023-02-14T15:29:32;101889.72;;;13.99;100.00
64352;BME280;50680;52.626;-8.668;2023-02-14T15:32:00;101876.78;;;13.94;100.00
64352;BME280;50680;52.626;-8.668;2023-02-14T15:34:31;101874.06;;;13.96;100.00
64352;BME280;50680;52.626;-8.668;2023-02-14T15:36:59;101881.97;;;13.96;100.00
64352;BME280;50680;52.626;-8.668;2023-02-14T15:39:38;101875.78;;;13.97;100.00
64352;BME280;50680;52.626;-8.668;2023-02-14T15:42:39;101873.16;;;13.97;100.00
64352;BME280;50680;52.626;-8.668;2023-02-14T15:45:20;101872.03;;;14.01;100.00
64352;BME280;50680;52.626;-8.668;2023-02-14T15:47:53;101873.16;;;13.97;100.00
64352;BME280;50680;52.626;-8.668;2023-02-14T15:50:22;101862.59;;;13.97;100.00
64352;BME280;50680;52.626;-8.668;2023-02-14T15:52:53;101862.25;;;13.87;100.00
64352;BME280;50680;52.626;-8.668;2023-02-14T15:55:24;101878.31;;;13.82;100.00
64352;BME280;50680;52.626;-8.668;2023-02-14T15:58:10;101856.59;;;13.77;100.00
64352;BME280;50680;52.626;-8.668;2023-02-14T16:00:42;101863.84;;;13.73;100.00
64352;BME280;50680;52.626;-8.668;2023-02-14T16:03:17;101845.28;;;13.59;100.00
64352;BME280;50680;52.626;-8.668;2023-02-14T16:05:46;101841.97;;;13.56;100.00
64352;BME280;50680;52.626;-8.668;2023-02-14T16:08:37;101842.78;;;13.40;100.00
64352;BME280;50680;52.626;-8.668;2023-02-14T16:11:10;101833.78;;;13.27;100.00
64352;BME280;50680;52.626;-8.668;2023-02-14T16:13:43;101839.94;;;13.27;100.00
64352;BME280;50680;52.626;-8.668;2023-02-14T16:16:12;101844.59;;;13.22;100.00
64352;BME280;50680;52.626;-8.668;2023-02-14T16:18:43;101840.59;;;13.15;100.00
64352;BME280;50680;52.626;-8.668;2023-02-14T16:26:34;101857.69;;;13.06;100.00
64352;BME280;50680;52.626;-8.668;2023-02-14T16:29:06;101829.91;;;13.01;100.00
64352;BME280;50680;52.626;-8.668;2023-02-14T16:31:34;101826.34;;;13.02;100.00
64352;BME280;50680;52.626;-8.668;2023-02-14T16:34:03;101830.84;;;13.00;100.00
64352;BME280;50680;52.626;-8.668;2023-02-14T16:36:32;101825.47;;;13.01;100.00
64352;BME280;50680;52.626;-8.668;2023-02-14T16:39:03;101835.31;;;12.97;100.00
64352;BME280;50680;52.626;-8.668;2023-02-14T16:41:33;101818.53;;;13.00;100.00
64352;BME280;50680;52.626;-8.668;2023-02-14T16:44:00;101813.41;;;12.97;100.00
64352;BME280;50680;52.626;-8.668;2023-02-14T16:46:34;101819.63;;;12.96;100.00
64352;BME280;50680;52.626;-8.668;2023-02-14T16:49:01;101807.38;;;12.95;100.00
64352;BME280;50680;52.626;-8.668;2023-02-14T16:51:30;101819.16;;;12.88;100.00
64352;BME280;50680;52.626;-8.668;2023-02-14T16:54:01;101822.00;;;12.83;100.00
64352;BME280;50680;52.626;-8.668;2023-02-14T16:58:58;101820.41;;;12.81;100.00
64352;BME280;50680;52.626;-8.668;2023-02-14T17:01:25;101824.88;;;12.78;100.00
64352;BME280;50680;52.626;-8.668;2023-02-14T17:03:52;101824.50;;;12.69;100.00
64352;BME280;50680;52.626;-8.668;2023-02-14T17:06:21;101816.06;;;12.62;100.00
64352;BME280;50680;52.626;-8.668;2023-02-14T17:08:50;101810.03;;;12.60;100.00
64352;BME280;50680;52.626;-8.668;2023-02-14T17:11:18;101817.16;;;12.58;100.00
64352;BME280;50680;52.626;-8.668;2023-02-14T17:13:45;101807.84;;;12.51;100.00
64352;BME280;50680;52.626;-8.668;2023-02-14T17:16:13;101821.09;;;12.49;100.00
64352;BME280;50680;52.626;-8.668;2023-02-14T17:18:44;101829.56;;;12.37;100.00
64352;BME280;50680;52.626;-8.668;2023-02-14T17:21:14;101829.25;;;12.26;100.00
64352;BME280;50680;52.626;-8.668;2023-02-14T17:23:41;101836.59;;;12.19;100.00
64352;BME280;50680;52.626;-8.668;2023-02-14T17:26:08;101836.72;;;12.16;100.00
64352;BME280;50680;52.626;-8.668;2023-02-14T17:28:36;101838.78;;;12.09;100.00
64352;BME280;50680;52.626;-8.668;2023-02-14T17:31:03;101829.63;;;11.99;100.00
64352;BME280;50680;52.626;-8.668;2023-02-14T17:33:31;101837.91;;;11.91;100.00
64352;BME280;50680;52.626;-8.668;2023-02-14T17:36:05;101852.09;;;11.87;100.00
64352;BME280;50680;52.626;-8.668;2023-02-14T17:38:37;101840.78;;;11.85;100.00
64352;BME280;50680;52.626;-8.668;2023-02-14T17:41:19;101835.13;;;11.75;100.00
64352;BME280;50680;52.626;-8.668;2023-02-14T17:43:48;101836.88;;;11.75;100.00
64352;BME280;50680;52.626;-8.668;2023-02-14T17:46:15;101844.97;;;11.70;100.00
64352;BME280;50680;52.626;-8.668;2023-02-14T17:48:44;101849.53;;;11.66;100.00
64352;BME280;50680;52.626;-8.668;2023-02-14T17:51:13;101850.50;;;11.64;100.00
64352;BME280;50680;52.626;-8.668;2023-02-14T17:53:40;101852.41;;;11.60;100.00
64352;BME280;50680;52.626;-8.668;2023-02-14T17:56:16;101841.13;;;11.58;100.00
64352;BME280;50680;52.626;-8.668;2023-02-14T17:58:45;101846.66;;;11.52;100.00
64352;BME280;50680;52.626;-8.668;2023-02-14T18:01:19;101843.31;;;11.48;100.00
64352;BME280;50680;52.626;-8.668;2023-02-14T18:03:46;101845.09;;;11.48;100.00
64352;BME280;50680;52.626;-8.668;2023-02-14T18:06:13;101846.09;;;11.45;100.00
64352;BME280;50680;52.626;-8.668;2023-02-14T18:08:44;101855.72;;;11.45;100.00
64352;BME280;50680;52.626;-8.668;2023-02-14T18:11:12;101845.34;;;11.42;100.00
64352;BME280;50680;52.626;-8.668;2023-02-14T18:13:39;101851.56;;;11.41;100.00
64352;BME280;50680;52.626;-8.668;2023-02-14T18:16:12;101839.47;;;11.37;100.00
64352;BME280;50680;52.626;-8.668;2023-02-14T18:18:40;101852.59;;;11.37;100.00
64352;BME280;50680;52.626;-8.668;2023-02-14T18:21:10;101858.13;;;11.31;100.00
64352;BME280;50680;52.626;-8.668;2023-02-14T18:23:37;101850.31;;;11.29;100.00
64352;BME280;50680;52.626;-8.668;2023-02-14T18:26:07;101844.53;;;11.21;100.00
64352;BME280;50680;52.626;-8.668;2023-02-14T18:28:35;101844.47;;;11.22;100.00
64352;BME280;50680;52.626;-8.668;2023-02-14T18:31:04;101847.22;;;11.19;100.00
64352;BME280;50680;52.626;-8.668;2023-02-14T18:33:32;101847.31;;;11.18;100.00
64352;BME280;50680;52.626;-8.668;2023-02-14T18:36:08;101838.56;;;11.17;100.00
64352;BME280;50680;52.626;-8.668;2023-02-14T18:38:38;101837.03;;;11.13;100.00
64352;BME280;50680;52.626;-8.668;2023-02-14T18:41:06;101822.41;;;11.07;100.00
64352;BME280;50680;52.626;-8.668;2023-02-14T18:43:34;101826.00;;;11.05;100.00
64352;BME280;50680;52.626;-8.668;2023-02-14T18:46:03;101829.63;;;11.02;100.00
64352;BME280;50680;52.626;-8.668;2023-02-14T18:48:32;101818.41;;;10.99;100.00
64352;BME280;50680;52.626;-8.668;2023-02-14T18:51:12;101824.28;;;11.04;100.00
64352;BME280;50680;52.626;-8.668;2023-02-14T18:53:40;101829.69;;;11.01;100.00
64352;BME280;50680;52.626;-8.668;2023-02-14T18:56:12;101825.47;;;10.97;100.00
64352;BME280;50680;52.626;-8.668;2023-02-14T18:58:42;101817.75;;;10.94;100.00
64352;BME280;50680;52.626;-8.668;2023-02-14T19:01:16;101823.13;;;10.90;100.00
64352;BME280;50680;52.626;-8.668;2023-02-14T19:03:44;101805.59;;;10.91;100.00
64352;BME280;50680;52.626;-8.668;2023-02-14T19:06:12;101822.25;;;10.90;100.00
64352;BME280;50680;52.626;-8.668;2023-02-14T19:08:39;101812.75;;;10.87;100.00
64352;BME280;50680;52.626;-8.668;2023-02-14T19:11:15;101809.22;;;10.88;100.00
64352;BME280;50680;52.626;-8.668;2023-02-14T19:13:44;101820.69;;;10.86;100.00
64352;BME280;50680;52.626;-8.668;2023-02-14T19:16:14;101807.63;;;10.84;100.00
64352;BME280;50680;52.626;-8.668;2023-02-14T19:18:41;101806.06;;;10.80;100.00
64352;BME280;50680;52.626;-8.668;2023-02-14T19:21:16;101808.75;;;10.79;100.00
64352;BME280;50680;52.626;-8.668;2023-02-14T19:23:46;101817.47;;;10.79;100.00
64352;BME280;50680;52.626;-8.668;2023-02-14T19:26:19;101820.22;;;10.76;100.00
64352;BME280;50680;52.626;-8.668;2023-02-14T19:28:48;101819.56;;;10.71;100.00
64352;BME280;50680;52.626;-8.668;2023-02-14T19:31:15;101823.22;;;10.67;100.00
64352;BME280;50680;52.626;-8.668;2023-02-14T19:33:45;101834.66;;;10.66;100.00
64352;BME280;50680;52.626;-8.668;2023-02-14T19:36:13;101837.47;;;10.61;100.00
64352;BME280;50680;52.626;-8.668;2023-02-14T19:38:43;101836.63;;;10.61;100.00
64352;BME280;50680;52.626;-8.668;2023-02-14T19:41:24;101821.84;;;10.58;100.00
64352;BME280;50680;52.626;-8.668;2023-02-14T19:43:53;101832.53;;;10.53;100.00
64352;BME280;50680;52.626;-8.668;2023-02-14T19:46:20;101818.69;;;10.50;100.00
64352;BME280;50680;52.626;-8.668;2023-02-14T19:48:47;101825.81;;;10.46;100.00
64352;BME280;50680;52.626;-8.668;2023-02-14T19:51:27;101832.13;;;10.42;100.00
64352;BME280;50680;52.626;-8.668;2023-02-14T19:53:56;101824.31;;;10.41;100.00
64352;BME280;50680;52.626;-8.668;2023-02-14T19:56:29;101837.47;;;10.39;100.00
64352;BME280;50680;52.626;-8.668;2023-02-14T19:58:56;101815.84;;;10.34;100.00
64352;BME280;50680;52.626;-8.668;2023-02-14T20:01:37;101805.31;;;10.35;100.00
64352;BME280;50680;52.626;-8.668;2023-02-14T20:04:06;101782.28;;;10.20;100.00
64352;BME280;50680;52.626;-8.668;2023-02-14T20:06:36;101779.38;;;10.28;100.00
64352;BME280;50680;52.626;-8.668;2023-02-14T20:09:04;101793.50;;;10.24;100.00
64352;BME280;50680;52.626;-8.668;2023-02-14T20:11:42;101796.13;;;10.24;100.00
64352;BME280;50680;52.626;-8.668;2023-02-14T20:14:26;101796.25;;;10.21;100.00
64352;BME280;50680;52.626;-8.668;2023-02-14T20:16:55;101791.00;;;10.21;100.00
64352;BME280;50680;52.626;-8.668;2023-02-14T20:19:26;101785.75;;;10.21;100.00
64352;BME280;50680;52.626;-8.668;2023-02-14T20:21:53;101785.75;;;10.21;100.00
64352;BME280;50680;52.626;-8.668;2023-02-14T20:24:23;101797.25;;;10.18;100.00
64352;BME280;50680;52.626;-8.668;2023-02-14T20:26:50;101794.72;;;10.15;100.00
64352;BME280;50680;52.626;-8.668;2023-02-14T20:29:18;101788.81;;;10.10;100.00
64352;BME280;50680;52.626;-8.668;2023-02-14T20:31:48;101792.28;;;10.10;100.00
64352;BME280;50680;52.626;-8.668;2023-02-14T20:34:16;101780.78;;;10.14;100.00
64352;BME280;50680;52.626;-8.668;2023-02-14T20:36:44;101776.38;;;10.15;100.00
64352;BME280;50680;52.626;-8.668;2023-02-14T20:39:14;101783.53;;;10.11;100.00
64352;BME280;50680;52.626;-8.668;2023-02-14T20:41:41;101784.31;;;10.13;100.00
64352;BME280;50680;52.626;-8.668;2023-02-14T20:44:11;101785.19;;;10.14;100.00
64352;BME280;50680;52.626;-8.668;2023-02-14T20:46:41;101783.47;;;10.13;100.00
64352;BME280;50680;52.626;-8.668;2023-02-14T20:49:07;101786.03;;;10.14;100.00
64352;BME280;50680;52.626;-8.668;2023-02-14T20:51:37;101792.13;;;10.15;100.00
64352;BME280;50680;52.626;-8.668;2023-02-14T20:54:04;101770.66;;;10.05;100.00
64352;BME280;50680;52.626;-8.668;2023-02-14T20:56:31;101788.72;;;10.13;100.00
64352;BME280;50680;52.626;-8.668;2023-02-14T20:59:01;101789.81;;;10.07;100.00
64352;BME280;50680;52.626;-8.668;2023-02-14T21:01:29;101791.63;;;10.05;100.00
64352;BME280;50680;52.626;-8.668;2023-02-14T21:03:56;101802.97;;;10.06;100.00
64352;BME280;50680;52.626;-8.668;2023-02-14T21:06:25;101782.06;;;10.04;100.00
64352;BME280;50680;52.626;-8.668;2023-02-14T21:08:53;101780.56;;;9.98;100.00
64352;BME280;50680;52.626;-8.668;2023-02-14T21:11:21;101771.16;;;9.93;100.00
64352;BME280;50680;52.626;-8.668;2023-02-14T21:13:53;101780.78;;;9.92;100.00
64352;BME280;50680;52.626;-8.668;2023-02-14T21:16:20;101762.50;;;9.91;100.00
64352;BME280;50680;52.626;-8.668;2023-02-14T21:18:50;101766.84;;;9.92;100.00
64352;BME280;50680;52.626;-8.668;2023-02-14T21:21:23;101778.09;;;9.94;100.00
64352;BME280;50680;52.626;-8.668;2023-02-14T21:23:51;101765.78;;;9.96;100.00
64352;BME280;50680;52.626;-8.668;2023-02-14T21:26:19;101764.00;;;9.96;100.00
64352;BME280;50680;52.626;-8.668;2023-02-14T21:28:46;101758.72;;;9.98;100.00
64352;BME280;50680;52.626;-8.668;2023-02-14T21:31:15;101768.19;;;10.02;100.00
64352;BME280;50680;52.626;-8.668;2023-02-14T21:33:43;101756.75;;;10.03;100.00
64352;BME280;50680;52.626;-8.668;2023-02-14T21:36:15;101768.19;;;10.02;100.00
64352;BME280;50680;52.626;-8.668;2023-02-14T21:38:43;101777.72;;;10.03;100.00
64352;BME280;50680;52.626;-8.668;2023-02-14T21:41:13;101778.88;;;9.96;100.00
64352;BME280;50680;52.626;-8.668;2023-02-14T21:43:43;101759.75;;;9.94;100.00
64352;BME280;50680;52.626;-8.668;2023-02-14T21:46:14;101765.19;;;9.89;100.00
64352;BME280;50680;52.626;-8.668;2023-02-14T21:48:42;101753.06;;;9.87;100.00
64352;BME280;50680;52.626;-8.668;2023-02-14T21:51:28;101756.66;;;9.84;100.00
64352;BME280;50680;52.626;-8.668;2023-02-14T21:53:55;101745.09;;;9.90;100.00
64352;BME280;50680;52.626;-8.668;2023-02-14T21:56:22;101743.25;;;9.92;100.00
64352;BME280;50680;52.626;-8.668;2023-02-14T21:58:51;101745.81;;;9.93;100.00
64352;BME280;50680;52.626;-8.668;2023-02-14T22:01:23;101743.06;;;9.96;100.00
64352;BME280;50680;52.626;-8.668;2023-02-14T22:03:51;101742.09;;;9.99;100.00
64352;BME280;50680;52.626;-8.668;2023-02-14T22:06:19;101731.34;;;10.05;100.00
64352;BME280;50680;52.626;-8.668;2023-02-14T22:08:56;101717.28;;;10.08;100.00
64352;BME280;50680;52.626;-8.668;2023-02-14T22:11:26;101719.06;;;10.07;100.00
64352;BME280;50680;52.626;-8.668;2023-02-14T22:13:54;101702.53;;;10.05;100.00
64352;BME280;50680;52.626;-8.668;2023-02-14T22:16:22;101705.22;;;10.04;100.00
64352;BME280;50680;52.626;-8.668;2023-02-14T22:18:49;101700.97;;;10.01;100.00
64352;BME280;50680;52.626;-8.668;2023-02-14T22:21:19;101698.34;;;10.01;100.00
64352;BME280;50680;52.626;-8.668;2023-02-14T22:23:46;101688.78;;;10.00;100.00
64352;BME280;50680;52.626;-8.668;2023-02-14T22:26:19;101695.72;;;10.01;100.00
64352;BME280;50680;52.626;-8.668;2023-02-14T22:28:49;101688.78;;;10.00;100.00
64352;BME280;50680;52.626;-8.668;2023-02-14T22:31:17;101682.69;;;10.00;100.00
64352;BME280;50680;52.626;-8.668;2023-02-14T22:33:45;101690.59;;;9.98;100.00
64352;BME280;50680;52.626;-8.668;2023-02-14T22:36:13;101695.84;;;9.98;100.00
64352;BME280;50680;52.626;-8.668;2023-02-14T22:38:40;101687.75;;;10.04;100.00
64352;BME280;50680;52.626;-8.668;2023-02-14T22:41:16;101692.03;;;10.05;100.00
64352;BME280;50680;52.626;-8.668;2023-02-14T22:43:43;101688.53;;;10.06;100.00
64352;BME280;50680;52.626;-8.668;2023-02-14T22:46:14;101688.41;;;10.09;100.00
64352;BME280;50680;52.626;-8.668;2023-02-14T22:48:43;101685.13;;;10.04;100.00
64352;BME280;50680;52.626;-8.668;2023-02-14T22:53:38;101677.25;;;10.04;100.00
64352;BME280;50680;52.626;-8.668;2023-02-14T22:56:16;101667.56;;;10.06;100.00
64352;BME280;50680;52.626;-8.668;2023-02-14T22:58:43;101671.75;;;10.10;100.00
64352;BME280;50680;52.626;-8.668;2023-02-14T23:01:18;101666.38;;;10.13;100.00
64352;BME280;50680;52.626;-8.668;2023-02-14T23:03:46;101666.31;;;10.15;100.00
64352;BME280;50680;52.626;-8.668;2023-02-14T23:06:13;101665.19;;;10.21;100.00
64352;BME280;50680;52.626;-8.668;2023-02-14T23:08:43;101665.06;;;10.24;100.00
64352;BME280;50680;52.626;-8.668;2023-02-14T23:11:18;101676.16;;;10.30;100.00
64352;BME280;50680;52.626;-8.668;2023-02-14T23:13:46;101668.97;;;10.35;100.00
64352;BME280;50680;52.626;-8.668;2023-02-14T23:16:32;101683.59;;;10.41;100.00
64352;BME280;50680;52.626;-8.668;2023-02-14T23:19:25;101682.69;;;10.42;100.00
64352;BME280;50680;52.626;-8.668;2023-02-14T23:24:50;101662.34;;;10.47;100.00
64352;BME280;50680;52.626;-8.668;2023-02-14T23:27:21;101652.53;;;10.52;100.00
64352;BME280;50680;52.626;-8.668;2023-02-14T23:29:48;101653.09;;;10.59;100.00
64352;BME280;50680;52.626;-8.668;2023-02-14T23:32:15;101645.66;;;10.69;100.00
64352;BME280;50680;52.626;-8.668;2023-02-14T23:34:43;101648.22;;;10.70;100.00
64352;BME280;50680;52.626;-8.668;2023-02-14T23:37:11;101632.47;;;10.70;100.00
64352;BME280;50680;52.626;-8.668;2023-02-14T23:39:39;101626.97;;;10.77;100.00
64352;BME280;50680;52.626;-8.668;2023-02-14T23:42:11;101640.78;;;10.80;100.00
64352;BME280;50680;52.626;-8.668;2023-02-14T23:44:40;101638.81;;;10.85;100.00
64352;BME280;50680;52.626;-8.668;2023-02-14T23:47:08;101634.34;;;10.87;100.00
64352;BME280;50680;52.626;-8.668;2023-02-14T23:49:37;101619.50;;;10.86;100.00
64352;BME280;50680;52.626;-8.668;2023-02-14T23:52:09;101624.56;;;10.91;100.00
64352;BME280;50680;52.626;-8.668;2023-02-14T23:54:37;101630.63;;;10.91;100.00
64352;BME280;50680;52.626;-8.668;2023-02-14T23:57:05;101626.09;;;10.95;100.00
64352;BME280;50680;52.626;-8.668;2023-02-14T23:59:32;101622.38;;;11.01;100.00
